St. HILARI SACALM (La Selva)





Hora UTC 16:45
Temperatura 10.6 ºC
Suelo 15 cm 12.0 ºC
Humedad 91.1 %
Presión 1012.6 hPa
Pluja 0.0 mm
Velocidad viento 3.4 km/h
Dirección viento E
Radiación solar 74.2 W/m²

Datos diarios 2024-04-16



Hora UTC (invierno +1h; verano +2h)
Temperatura (ºC) Humedad (%) Presión (hPa) Velocidad viento (km/h) Precipitación (mm) Radiación solar (W/m²)
Hora UTC Aire Suelo 15 cm Humedad Presión Vel. Dir. Vel. Max Dir. Intent. máx 5 min. Rad. Sol.
00:05 9.8 3.9 78.2 1017.4 0.1 N 0.1 N 0.0 0.1
00:10 9.7 3.9 78.2 1017.3 0.0 NNE 0.0 N 0.0 0.1
00:15 9.8 3.8 77.8 1017.3 0.0 NNE 0.0 N 0.0 0.1
00:20 9.7 3.8 78.0 1017.2 0.0 NNE 0.0 N 0.0 0.1
00:25 9.8 3.9 78.3 1017.2 0.0 ESE 3.4 ESE 0.0 0.1
00:30 10.0 4.1 78.0 1017.2 0.0 NNE 0.0 E 0.0 0.1
00:35 9.9 4.3 77.5 1017.1 0.0 NNE 0.0 E 0.0 0.1
00:40 9.7 4.5 77.9 1017.1 0.8 W 6.1 W 0.0 0.1
00:45 9.6 4.4 78.3 1016.9 0.0 NNE 0.0 NW 0.0 0.1
00:50 9.6 4.3 78.8 1016.9 0.0 NNE 0.0 NW 0.0 0.1
00:55 9.5 4.2 78.6 1016.8 0.0 NNE 0.0 SSW 0.0 0.1
01:00 9.4 4.3 79.0 1016.8 0.3 WNW 3.4 WNW 0.0 0.1
01:05 9.3 4.2 79.1 1016.7 2.4 WNW 6.1 WNW 0.0 0.1
01:10 9.2 4.4 79.4 1016.6 2.8 W 6.1 W 0.0 0.1
01:15 9.0 4.4 79.7 1016.6 0.1 W 3.4 WNW 0.0 0.1
01:20 8.9 4.2 80.9 1016.6 0.0 NW 3.4 NW 0.0 0.1
01:25 9.0 4.1 81.5 1016.5 2.1 NNW 8.8 NNW 0.0 0.1
01:30 9.0 4.2 81.4 1016.5 0.0 NNE 0.0 NW 0.0 0.1
01:35 8.9 4.1 81.4 1016.5 0.3 SW 6.1 SSW 0.0 0.1
01:40 8.7 4.4 81.9 1016.4 0.7 SSW 6.1 SSW 0.0 0.1
01:45 8.8 4.6 81.9 1016.3 0.1 SW 3.4 WSW 0.0 0.1
01:50 8.7 4.7 81.8 1016.2 0.7 SW 6.1 WSW 0.0 0.1
01:55 8.5 4.5 82.1 1016.3 3.7 WSW 8.8 W 0.0 0.1
02:00 8.4 4.6 83.6 1016.2 1.3 WSW 8.8 W 0.0 0.1
02:05 8.5 4.9 83.3 1016.3 1.4 SW 6.1 W 0.0 0.1
02:10 8.5 5.1 83.0 1016.2 3.2 W 8.8 NW 0.0 0.1
02:15 8.5 5.0 84.3 1016.1 1.9 WSW 6.1 WNW 0.0 0.1
02:20 8.4 5.1 84.2 1016.0 2.3 WSW 8.8 SW 0.0 0.1
02:25 8.3 4.9 84.2 1016.0 3.1 WNW 8.8 W 0.0 0.1
02:30 8.2 4.5 85.7 1016.0 0.8 WNW 6.1 WNW 0.0 0.1
02:35 8.1 4.3 85.6 1015.9 0.5 SW 6.1 SSW 0.0 0.1
02:40 8.0 4.4 85.4 1015.8 0.6 SW 6.1 SW 0.0 0.1
02:45 8.2 4.6 85.3 1015.7 0.0 NNE 0.0 SSW 0.0 0.1
02:50 8.1 4.5 84.8 1015.7 0.0 NNE 0.0 SSW 0.0 0.1
02:55 8.2 4.5 84.3 1015.7 0.0 NNE 0.0 SSE 0.0 0.1
03:00 8.2 4.2 84.6 1015.7 0.0 NNE 0.0 SSE 0.0 0.1
03:05 8.1 3.8 85.4 1015.8 0.0 NNE 0.0 SSE 0.0 0.1
03:10 8.0 3.7 85.8 1015.9 0.0 NNE 0.0 S 0.0 0.1
03:15 8.1 3.7 86.0 1015.8 0.0 NNE 0.0 SSW 0.0 0.1
03:20 8.1 3.5 85.5 1015.8 0.0 NNE 0.0 S 0.0 0.1
03:25 7.8 3.2 85.8 1015.8 0.0 NNE 0.0 S 0.0 0.1
03:30 7.7 3.3 86.4 1015.7 0.0 NNE 0.0 S 0.0 0.1
03:35 7.7 3.5 86.7 1015.7 1.1 W 6.1 W 0.0 0.1
03:40 7.7 3.8 86.7 1015.7 3.5 WSW 6.1 W 0.0 0.1
03:45 7.6 4.2 86.9 1015.6 1.1 WSW 6.1 WSW 0.0 0.1
03:50 7.5 4.2 87.5 1015.5 0.0 NNE 0.0 WSW 0.0 0.1
03:55 7.5 4.4 87.9 1015.4 0.0 NNE 0.0 SSW 0.0 0.1
04:00 7.5 4.4 87.9 1015.2 0.0 NNE 0.0 SW 0.0 0.1
04:05 7.4 4.2 88.2 1015.2 0.0 NNE 0.0 SSW 0.0 0.1
04:10 7.6 4.1 88.9 1015.2 0.0 NNE 0.0 SSW 0.0 0.1
04:15 7.9 4.0 88.5 1015.1 0.0 NNE 0.0 S 0.0 0.1
04:20 8.0 4.1 87.7 1015.1 0.0 NNE 0.0 S 0.0 0.1
04:25 7.9 4.2 87.5 1015.0 0.0 NNE 0.0 SW 0.0 0.1
04:30 7.8 3.9 87.4 1015.0 0.0 NNE 0.0 SW 0.0 0.1
04:35 7.6 3.8 88.6 1015.0 0.0 NNE 0.0 SW 0.0 0.1
04:40 7.6 4.0 89.4 1015.2 0.0 NNE 0.0 WSW 0.0 0.1
04:45 7.6 4.2 89.8 1015.0 2.1 SSW 8.8 WSW 0.0 0.1
04:50 7.6 4.5 88.8 1014.8 2.1 SW 8.8 SW 0.0 0.1
04:55 7.6 4.4 89.1 1014.9 0.2 SSW 6.1 SSW 0.0 0.2
05:00 7.6 4.0 89.7 1015.1 1.9 W 8.8 WSW 0.0 0.6
05:05 7.6 3.6 89.8 1015.0 0.0 NNE 0.0 WSW 0.0 1.4
05:10 7.5 3.6 90.1 1015.1 2.7 NW 8.8 W 0.0 2.5
05:15 7.8 4.3 89.5 1015.2 4.3 NW 8.8 NNW 0.0 3.6
05:20 7.8 4.8 89.2 1015.3 7.2 NNW 14.2 NNW 0.0 5.2
05:25 7.9 5.5 89.1 1015.4 8.0 NW 16.9 NW 0.0 6.8
05:30 8.0 6.0 87.9 1015.3 8.2 NW 19.6 N 0.0 7.3
05:35 8.1 6.2 85.9 1015.1 4.6 NW 8.8 N 0.0 6.6
05:40 8.1 6.5 85.2 1015.1 4.7 NNW 11.5 NW 0.0 11.4
05:45 8.2 6.8 84.6 1015.0 5.0 NNW 11.5 NW 0.0 18.6
05:50 8.2 6.9 84.2 1015.0 7.5 NNW 16.9 NNW 0.0 38.2
05:55 8.3 7.0 83.0 1015.0 3.8 NW 11.5 NW 0.0 41.3
06:00 8.4 7.1 81.8 1014.9 3.5 WNW 11.5 W 0.0 69.3
06:05 8.6 7.1 80.8 1015.0 4.1 NW 11.5 NW 0.0 97.3
06:10 8.9 7.3 79.8 1015.0 4.6 NW 11.5 NW 0.0 116.0
06:15 9.2 7.6 78.6 1015.0 5.8 NW 11.5 N 0.0 130.1
06:20 9.4 8.2 77.5 1015.0 6.0 NW 14.2 NW 0.0 138.2
06:25 9.4 8.3 76.2 1015.0 8.4 NW 16.9 WNW 0.0 121.8
06:30 9.4 8.2 76.3 1014.9 7.4 NNW 14.2 NNW 0.0 83.5
06:35 9.2 7.8 77.1 1015.0 7.8 NW 16.9 NNW 0.0 80.6
06:40 9.4 8.2 76.9 1015.0 7.7 NW 16.9 W 0.0 210.9
06:45 10.2 9.7 74.9 1014.9 3.2 WNW 14.2 W 0.0 242.8
06:50 11.1 11.1 72.1 1014.9 2.6 WNW 8.8 W 0.0 252.1
06:55 11.9 12.1 67.8 1015.0 0.8 SW 6.1 WSW 0.0 270.1
07:00 12.3 12.7 67.2 1015.0 0.7 SSW 6.1 SSW 0.0 142.5
07:05 12.3 12.7 68.0 1014.8 5.1 S 8.8 SSW 0.0 185.7
07:10 11.7 13.0 72.5 1014.8 2.9 S 8.8 SSW 0.0 234.8
07:15 11.4 13.0 75.0 1014.7 1.4 SSE 6.1 S 0.0 90.5
07:20 10.7 12.1 77.8 1014.8 1.3 ESE 6.1 ESE 0.0 91.6
07:25 10.4 11.7 80.6 1014.8 1.2 E 6.1 ENE 0.0 116.1
07:30 10.2 11.7 82.9 1014.8 0.0 NNE 0.0 ENE 0.0 136.3
07:35 10.2 11.9 83.6 1014.8 2.0 ENE 8.8 ENE 0.0 127.3
07:40 10.2 12.1 84.0 1014.7 3.3 ENE 8.8 ENE 0.0 135.9
07:45 10.4 12.5 84.4 1014.8 2.2 NE 8.8 NE 0.0 147.6
07:50 10.5 12.9 83.5 1014.8 2.4 NNE 8.8 NE 0.0 143.8
07:55 10.4 13.1 84.0 1014.9 0.6 NNE 6.1 N 0.0 145.0
08:00 10.5 13.3 84.0 1014.9 2.7 E 8.8 ESE 0.0 137.6
08:05 10.5 13.2 84.1 1014.9 3.8 NE 8.8 ENE 0.0 140.8
08:10 10.3 13.3 84.9 1014.9 3.5 NE 8.8 ENE 0.0 176.4
08:15 10.4 13.5 84.9 1014.8 3.5 ENE 8.8 ENE 0.0 169.1
08:20 10.5 13.6 84.5 1014.8 2.3 ENE 8.8 ENE 0.0 189.2
08:25 10.5 14.0 84.0 1014.8 4.5 ENE 8.8 ENE 0.0 214.5
08:30 10.6 14.5 84.2 1014.8 2.1 ENE 8.8 E 0.0 235.4
08:35 10.9 15.0 82.8 1014.9 3.3 NE 8.8 ENE 0.0 311.3
08:40 11.1 16.2 82.0 1014.8 2.5 NE 8.8 ENE 0.0 381.3
08:45 11.5 17.2 80.3 1014.8 0.0 ENE 3.4 ENE 0.0 372.3
08:50 11.8 18.0 79.5 1014.8 0.0 NNE 0.0 ENE 0.0 321.3
08:55 12.0 18.0 78.3 1014.9 0.0 NNE 0.0 ENE 0.0 265.7
09:00 11.9 18.0 78.5 1014.8 0.0 NNE 0.0 ENE 0.0 315.4
09:05 11.9 18.1 78.1 1014.7 0.0 NNE 0.0 ENE 0.0 306.5
09:10 11.9 17.7 78.4 1014.7 0.0 NNE 0.0 NE 0.0 309.1
09:15 11.9 17.7 77.8 1014.7 0.0 NNE 0.0 ENE 0.0 350.5
09:20 12.2 17.9 77.4 1014.8 0.0 NNE 0.0 E 0.0 343.6
09:25 12.4 18.6 76.7 1014.8 0.0 NNE 0.0 ESE 0.0 616.4
09:30 12.9 21.4 75.5 1014.9 0.0 NNE 0.0 NE 0.0 824.0
09:35 13.1 22.4 74.1 1014.8 1.3 ESE 8.8 ESE 0.0 425.5
09:40 13.0 22.4 74.1 1014.9 2.2 ESE 8.8 ESE 0.0 300.6
09:45 13.0 21.3 74.8 1014.9 3.2 NNE 11.5 ENE 0.0 346.2
09:50 13.0 20.4 74.1 1014.9 5.6 NE 14.2 E 0.0 302.1
09:55 12.9 19.9 75.1 1014.8 5.2 ENE 11.5 ENE 0.0 678.9
10:00 13.7 22.5 75.2 1014.8 4.2 NNE 11.5 N 0.0 831.0
10:05 14.2 24.1 71.4 1014.8 6.0 NE 11.5 ENE 0.0 778.0
10:10 14.2 25.3 70.5 1014.8 6.0 ENE 11.5 ENE 0.0 834.0
10:15 14.6 26.2 70.7 1014.7 8.2 ENE 14.2 NE 0.0 872.0
10:20 15.0 27.4 69.0 1014.7 4.4 ENE 14.2 ESE 0.0 713.5
10:25 15.0 26.3 68.8 1014.7 5.8 NE 14.2 ESE 0.0 492.5
10:30 14.7 24.5 70.0 1014.7 5.6 ENE 14.2 ENE 0.0 381.5
10:35 14.4 23.4 71.1 1014.7 7.1 E 16.9 E 0.0 467.4
10:40 13.7 21.4 73.1 1014.7 8.4 ENE 16.9 E 0.0 207.6
10:45 13.5 20.1 73.8 1014.7 4.5 E 14.2 ENE 0.0 223.9
10:50 13.3 19.2 74.1 1014.7 7.2 E 16.9 ENE 0.0 321.3
10:55 12.9 18.7 74.7 1014.7 9.3 ENE 16.9 E 0.0 324.2
11:00 12.8 18.2 75.5 1014.7 9.5 ENE 19.6 E 0.0 267.3
11:05 12.6 18.0 76.5 1014.7 7.6 E 14.2 ENE 0.0 277.5
11:10 12.8 19.3 77.3 1014.6 6.3 NE 14.2 NNE 0.0 799.7
11:15 14.0 22.5 73.4 1014.5 8.1 NE 14.2 N 0.0 808.0
11:20 14.1 23.1 71.6 1014.5 7.9 ENE 19.6 NE 0.0 417.1
11:25 13.6 22.2 73.2 1014.4 10.7 E 22.3 E 0.0 461.4
11:30 13.6 22.4 74.3 1014.4 8.2 ENE 14.2 E 0.0 603.0
11:35 13.7 21.9 73.6 1014.4 8.8 ENE 19.6 ENE 0.0 350.2
11:40 13.6 20.5 74.2 1014.4 9.8 ENE 16.9 NE 0.0 361.0
11:45 13.3 19.6 75.2 1014.3 7.8 NE 19.6 E 0.0 259.1
11:50 13.0 18.5 76.3 1014.3 7.6 ENE 14.2 ENE 0.0 196.8
11:55 12.7 17.6 77.5 1014.2 8.1 E 14.2 ENE 0.0 294.1
12:00 13.1 18.4 76.7 1014.1 11.5 ENE 25.0 NE 0.0 457.4
12:05 13.3 18.4 75.5 1014.1 9.1 ENE 16.9 NE 0.0 277.9
12:10 13.1 18.3 76.5 1014.0 6.5 E 16.9 ENE 0.0 276.3
12:15 13.2 18.1 76.3 1014.0 5.4 ENE 14.2 E 0.0 259.3
12:20 13.2 18.0 75.9 1014.1 8.7 ENE 16.9 ENE 0.0 280.9
12:25 13.0 18.0 77.1 1014.0 6.9 ESE 16.9 NE 0.0 291.3
12:30 13.4 19.1 75.8 1013.9 7.6 ENE 19.6 ENE 0.0 491.9
12:35 13.2 19.0 75.7 1013.9 9.3 ENE 19.6 ENE 0.0 245.5
12:40 13.3 19.0 76.2 1013.8 7.2 ENE 14.2 NE 0.0 421.1
12:45 13.5 19.2 75.2 1013.8 6.5 ENE 14.2 ENE 0.0 242.5
12:50 13.2 18.0 75.7 1013.9 8.9 ENE 19.6 ENE 0.0 185.2
12:55 12.9 17.4 77.5 1013.8 6.0 ENE 14.2 E 0.0 223.8
13:00 13.2 17.9 77.3 1013.8 7.2 ENE 14.2 E 0.0 333.8
13:05 13.4 18.7 76.1 1013.7 9.2 E 19.6 E 0.0 372.8
13:10 13.5 18.6 76.4 1013.7 7.8 ENE 14.2 E 0.0 249.1
13:15 13.1 17.7 77.5 1013.7 11.7 E 19.6 ENE 0.0 170.0
13:20 12.8 16.7 79.3 1013.7 9.0 E 19.6 ESE 0.0 123.3
13:25 12.7 16.3 80.7 1013.5 6.1 ENE 16.9 E 0.0 240.3
13:30 12.7 16.5 80.4 1013.5 5.8 ENE 16.9 E 0.0 202.3
13:35 12.6 16.0 80.6 1013.6 8.0 NE 19.6 NE 0.0 159.4
13:40 12.5 15.9 81.1 1013.5 8.2 ENE 16.9 ENE 0.0 171.6
13:45 12.4 15.7 81.7 1013.5 9.4 E 19.6 E 0.0 226.7
13:50 12.4 15.9 81.4 1013.4 6.7 E 14.2 E 0.0 167.6
13:55 12.4 15.7 81.5 1013.3 6.6 E 16.9 E 0.0 163.6
14:00 12.5 15.9 81.4 1013.3 7.3 E 16.9 E 0.0 177.8
14:05 12.5 15.8 80.9 1013.2 8.0 ENE 19.6 E 0.0 153.6
14:10 12.3 15.3 81.8 1013.2 9.2 ENE 16.9 ENE 0.0 137.7
14:15 12.2 14.8 82.3 1013.2 9.5 E 19.6 ESE 0.0 79.0
14:20 12.0 14.1 83.3 1013.2 5.6 NE 14.2 NE 0.0 49.4
14:25 11.7 13.6 84.9 1013.2 3.2 E 11.5 ESE 0.0 79.8
14:30 11.8 13.6 84.8 1013.1 8.6 E 16.9 E 0.0 84.2
14:35 11.7 13.4 85.1 1013.1 5.4 ENE 14.2 ENE 0.0 73.5
14:40 11.6 13.2 85.9 1013.1 6.4 ENE 16.9 ESE 0.0 68.0
14:45 11.4 12.9 86.8 1013.0 9.1 E 19.6 E 0.0 83.7
14:50 11.4 12.9 87.7 1013.0 5.5 E 16.9 NE 0.0 83.3
14:55 11.3 12.8 87.9 1013.0 2.8 NE 11.5 NNE 0.0 42.4
15:00 11.2 12.6 88.6 1013.0 3.3 ENE 14.2 ESE 0.0 49.1
15:05 11.0 12.3 89.3 1013.0 7.2 E 19.6 E 0.0 56.3
15:10 10.8 12.2 90.0 1012.9 6.2 ENE 16.9 E 0.0 65.1
15:15 10.8 12.1 90.4 1012.9 6.7 E 16.9 ESE 0.0 39.7
15:20 10.7 11.9 90.7 1012.9 5.7 ENE 14.2 E 0.0 46.7
15:25 10.7 11.8 90.6 1012.9 7.0 E 22.3 E 0.0 52.9
15:30 10.6 11.7 90.5 1012.9 3.0 ESE 11.5 ESE 0.0 41.1
15:35 10.6 11.7 90.0 1012.8 8.0 E 19.6 E 0.0 59.9
15:40 10.6 11.7 90.0 1012.8 7.3 E 16.9 E 0.0 78.6
15:45 10.6 11.8 90.1 1012.9 5.6 E 14.2 ESE 0.0 65.3
15:50 10.6 11.9 90.0 1012.8 3.6 ENE 11.5 ENE 0.0 62.8
15:55 10.7 11.9 90.1 1012.8 6.1 E 16.9 ENE 0.0 69.6
16:00 10.7 11.9 89.7 1012.8 6.3 E 14.2 E 0.0 58.7
16:05 10.6 11.9 89.7 1012.7 4.4 ESE 11.5 E 0.0 68.1
16:10 10.7 12.1 89.4 1012.7 5.0 E 14.2 ESE 0.0 104.9
16:15 10.6 12.3 89.4 1012.7 6.3 E 14.2 E 0.0 90.9
16:20 10.7 12.2 89.5 1012.7 4.2 ENE 11.5 ENE 0.0 70.9
16:25 10.6 12.1 90.0 1012.7 6.5 E 14.2 ESE 0.0 51.2
16:30 10.5 11.9 90.7 1012.7 5.7 ENE 11.5 E 0.0 44.2
16:35 10.5 11.7 91.2 1012.7 4.2 ESE 11.5 E 0.0 53.6
16:40 10.5 11.8 91.4 1012.7 3.2 E 8.8 ENE 0.0 71.1
16:45 10.6 12.0 91.1 1012.6 3.4 E 11.5 ENE 0.0 74.2
Máxima 15.2 27.4 91.4 1017.4 11.7 E 25.0 NE 0.0 872.0
Mínima 7.4 3.2 67.2 1012.6
Total 0.0